createdAt,value
2018-06-24T00:01:10.957Z,41.80
2018-06-24T00:03:39.146Z,42.00
2018-06-24T00:06:07.436Z,41.90
2018-06-24T00:08:35.627Z,41.40
2018-06-24T00:11:03.871Z,41.90
2018-06-24T00:13:32.082Z,42.00
2018-06-24T00:16:00.294Z,42.30
2018-06-24T00:18:28.784Z,43.10
2018-06-24T00:20:56.988Z,44.60
2018-06-24T00:23:25.179Z,44.90
2018-06-24T00:25:53.418Z,45.10
2018-06-24T00:28:21.616Z,45.60
2018-06-24T00:30:49.850Z,46.50
2018-06-24T00:33:18.045Z,46.00
2018-06-24T00:35:46.263Z,46.00
2018-06-24T00:38:14.535Z,46.20
2018-06-24T00:40:42.748Z,46.30
2018-06-24T00:43:11.135Z,46.10
2018-06-24T00:45:39.331Z,46.50
2018-06-24T00:48:07.545Z,46.90
2018-06-24T00:50:35.744Z,46.30
2018-06-24T00:53:04.048Z,46.30
2018-06-24T00:55:32.353Z,46.00
2018-06-24T00:58:00.564Z,45.20
2018-06-24T01:00:28.760Z,46.10
2018-06-24T01:02:56.955Z,44.90
2018-06-24T01:05:25.211Z,44.50
2018-06-24T01:07:53.410Z,44.30
2018-06-24T01:10:21.601Z,44.80
2018-06-24T01:12:49.819Z,45.50
2018-06-24T01:15:18.010Z,46.00
2018-06-24T01:17:46.246Z,46.10
2018-06-24T01:20:14.463Z,46.50
2018-06-24T01:22:42.651Z,46.40
2018-06-24T01:25:10.848Z,46.20
2018-06-24T01:27:39.037Z,45.90
2018-06-24T01:30:07.234Z,45.70
2018-06-24T01:32:35.421Z,46.20
2018-06-24T01:35:03.632Z,46.20
2018-06-24T01:37:31.859Z,45.90
2018-06-24T01:40:00.072Z,45.60
2018-06-24T01:42:28.246Z,45.60
2018-06-24T01:44:56.459Z,45.20
2018-06-24T01:47:24.680Z,45.70
2018-06-24T01:49:52.870Z,46.00
2018-06-24T01:52:21.551Z,46.10
2018-06-24T01:54:49.774Z,46.40
2018-06-24T01:57:17.979Z,46.20
2018-06-24T01:59:46.185Z,46.70
2018-06-24T02:02:14.371Z,46.80
2018-06-24T02:04:42.822Z,47.10
2018-06-24T02:07:10.995Z,47.30
2018-06-24T02:09:39.180Z,48.50
2018-06-24T02:12:07.355Z,48.20
2018-06-24T02:14:35.657Z,48.90
2018-06-24T02:17:04.038Z,48.60
2018-06-24T02:19:32.253Z,48.90
2018-06-24T02:22:00.432Z,48.90
2018-06-24T02:24:28.606Z,48.90
2018-06-24T02:26:56.796Z,49.30
2018-06-24T02:29:24.970Z,49.20
2018-06-24T02:31:53.136Z,49.40
2018-06-24T02:34:21.319Z,49.70
2018-06-24T02:36:49.491Z,49.30
2018-06-24T02:39:17.922Z,48.80
2018-06-24T02:41:46.087Z,48.60
2018-06-24T02:44:14.307Z,48.70
2018-06-24T02:46:42.475Z,48.00
2018-06-24T02:49:10.665Z,47.60
2018-06-24T02:51:38.843Z,47.50
2018-06-24T02:54:07.040Z,47.40
2018-06-24T02:56:35.235Z,47.20
2018-06-24T02:59:03.427Z,47.10
2018-06-24T03:01:31.671Z,47.00
2018-06-24T03:03:59.891Z,47.90
2018-06-24T03:06:28.081Z,46.00
2018-06-24T03:08:56.326Z,45.70
2018-06-24T03:11:24.531Z,45.80
2018-06-24T03:13:52.875Z,46.10
2018-06-24T03:16:21.052Z,45.50
2018-06-24T03:18:49.258Z,45.40
2018-06-24T03:21:17.447Z,45.50
2018-06-24T03:23:45.646Z,45.00
2018-06-24T03:26:13.821Z,45.00
2018-06-24T03:28:42.029Z,44.70
2018-06-24T03:31:10.233Z,44.00
2018-06-24T03:33:38.461Z,43.80
2018-06-24T03:38:34.651Z,43.80
2018-06-24T03:41:02.834Z,44.00
2018-06-24T03:43:31.022Z,44.00
2018-06-24T03:45:59.254Z,44.30
2018-06-24T03:48:27.489Z,44.30
2018-06-24T03:50:55.725Z,43.90
2018-06-24T03:53:23.942Z,44.60
2018-06-24T03:58:20.052Z,43.80
2018-06-24T04:00:48.227Z,43.10
2018-06-24T04:03:16.404Z,43.10
2018-06-24T04:05:44.594Z,44.40
2018-06-24T04:08:12.770Z,44.40
2018-06-24T04:10:40.996Z,44.00
2018-06-24T04:13:09.170Z,44.80
2018-06-24T04:15:37.346Z,45.40
2018-06-24T04:18:05.791Z,45.40
2018-06-24T04:20:33.980Z,46.00
2018-06-24T04:23:02.176Z,46.50
2018-06-24T04:25:30.346Z,46.70
2018-06-24T04:27:58.588Z,46.70
2018-06-24T04:32:54.953Z,46.30
2018-06-24T04:35:23.142Z,46.30
2018-06-24T04:37:51.314Z,47.00
2018-06-24T04:42:54.102Z,46.90
2018-06-24T04:45:23.140Z,47.60
2018-06-24T04:47:51.314Z,46.60
2018-06-24T04:50:19.489Z,46.70
2018-06-24T04:52:47.667Z,47.40
2018-06-24T04:55:15.850Z,46.20
2018-06-24T04:57:44.066Z,47.00
2018-06-24T05:00:12.274Z,46.50
2018-06-24T05:02:40.470Z,46.60
2018-06-24T05:05:08.651Z,45.60
2018-06-24T05:10:11.474Z,44.70
2018-06-24T05:12:39.686Z,44.80
2018-06-24T05:15:07.878Z,45.20
2018-06-24T05:17:36.080Z,44.30
2018-06-24T05:20:04.355Z,44.00
2018-06-24T05:22:32.571Z,44.10
2018-06-24T05:25:00.815Z,43.60
2018-06-24T05:27:29.046Z,43.70
2018-06-24T05:29:57.178Z,43.70
2018-06-24T05:32:25.411Z,44.00
2018-06-24T05:34:53.610Z,44.00
2018-06-24T05:37:21.815Z,44.60
2018-06-24T05:39:50.010Z,43.60
2018-06-24T05:42:18.202Z,42.10
2018-06-24T05:44:46.394Z,41.20
2018-06-24T05:47:14.621Z,40.00
2018-06-24T05:49:42.805Z,38.80
2018-06-24T05:52:10.987Z,38.30
2018-06-24T05:54:39.189Z,36.90
2018-06-24T05:57:07.424Z,36.20
2018-06-24T05:59:35.626Z,35.00
2018-06-24T06:02:03.809Z,33.90
2018-06-24T06:04:32.010Z,34.00
2018-06-24T06:07:00.225Z,33.10
2018-06-24T06:09:28.799Z,32.50
2018-06-24T06:11:56.990Z,32.40
2018-06-24T06:14:25.186Z,31.00
2018-06-24T06:16:53.962Z,30.20
2018-06-24T06:19:22.229Z,30.10
2018-06-24T06:21:50.449Z,30.30
2018-06-24T06:24:18.639Z,29.90
2018-06-24T06:26:46.821Z,29.20
2018-06-24T06:29:15.033Z,30.00
2018-06-24T06:31:43.222Z,29.90
2018-06-24T06:34:11.399Z,30.30
2018-06-24T06:36:39.646Z,29.00
2018-06-24T06:39:08.890Z,29.90
2018-06-24T06:41:37.312Z,29.60
2018-06-24T06:44:05.978Z,30.00
2018-06-24T06:46:34.190Z,30.80
2018-06-24T06:49:02.385Z,30.10
2018-06-24T06:51:30.578Z,30.20
2018-06-24T06:53:58.782Z,29.80
2018-06-24T06:56:26.958Z,29.20
2018-06-24T06:58:55.122Z,28.30
2018-06-24T07:01:23.290Z,28.60
2018-06-24T07:03:51.513Z,27.80
2018-06-24T07:06:19.723Z,27.60
2018-06-24T07:08:47.894Z,27.70
2018-06-24T07:11:16.088Z,27.80
2018-06-24T07:13:44.352Z,29.00
2018-06-24T07:16:12.504Z,28.50
2018-06-24T07:18:40.697Z,28.30
2018-06-24T07:21:08.874Z,28.80
2018-06-24T07:23:37.046Z,29.10
2018-06-24T07:26:05.360Z,28.40
2018-06-24T07:28:33.567Z,29.90
2018-06-24T07:31:01.722Z,30.40
2018-06-24T07:33:29.959Z,30.60
2018-06-24T07:35:58.083Z,29.80
2018-06-24T07:38:26.325Z,29.70
2018-06-24T07:40:54.439Z,29.80
2018-06-24T07:43:22.629Z,29.30
2018-06-24T07:45:50.823Z,28.90
2018-06-24T07:48:19.023Z,29.70
2018-06-24T07:50:47.227Z,30.00
2018-06-24T07:53:15.421Z,31.50
2018-06-24T07:55:43.614Z,31.70
2018-06-24T07:58:11.850Z,31.70
2018-06-24T08:00:40.098Z,30.50
2018-06-24T08:03:08.363Z,31.50
2018-06-24T08:05:36.530Z,29.60
2018-06-24T08:08:04.790Z,29.30
2018-06-24T08:10:32.985Z,29.30
2018-06-24T08:13:01.187Z,29.60
2018-06-24T08:15:29.391Z,29.10
2018-06-24T08:17:57.628Z,29.00
2018-06-24T08:20:26.044Z,29.30
2018-06-24T08:25:22.809Z,28.90
2018-06-24T08:27:51.030Z,28.20
2018-06-24T08:30:19.366Z,28.90
2018-06-24T08:32:47.592Z,29.20
2018-06-24T08:35:15.853Z,29.10
2018-06-24T08:37:44.127Z,29.30
2018-06-24T08:40:12.342Z,28.30
2018-06-24T08:42:40.727Z,29.00
2018-06-24T08:45:09.091Z,28.70
2018-06-24T08:47:37.284Z,28.90
2018-06-24T08:50:05.807Z,29.00
2018-06-24T08:52:34.342Z,29.30
2018-06-24T08:55:02.565Z,29.30
2018-06-24T08:57:30.798Z,28.40
2018-06-24T09:00:05.387Z,29.20
2018-06-24T09:02:33.598Z,28.90
2018-06-24T09:05:01.815Z,29.50
2018-06-24T09:07:30.022Z,30.00
2018-06-24T09:09:58.190Z,28.80
2018-06-24T09:12:26.383Z,28.50
2018-06-24T09:14:54.579Z,28.60
2018-06-24T09:17:22.743Z,28.90
2018-06-24T09:19:50.997Z,28.20
2018-06-24T09:22:19.151Z,29.10
2018-06-24T09:24:47.326Z,29.30
2018-06-24T09:27:15.491Z,29.00
2018-06-24T09:29:43.731Z,29.50
2018-06-24T09:32:11.908Z,28.70
2018-06-24T09:34:40.095Z,28.90
2018-06-24T09:37:08.300Z,28.60
2018-06-24T09:39:36.553Z,28.80
2018-06-24T09:42:04.731Z,28.70
2018-06-24T09:44:32.998Z,29.00
2018-06-24T09:47:01.922Z,27.40
2018-06-24T09:49:30.121Z,28.00
2018-06-24T09:51:58.306Z,27.70
2018-06-24T09:54:26.554Z,27.90
2018-06-24T09:56:54.807Z,27.20
2018-06-24T09:59:23.339Z,27.70
2018-06-24T10:01:51.301Z,27.50
2018-06-24T10:04:19.498Z,27.60
2018-06-24T10:06:47.719Z,27.60
2018-06-24T10:09:15.998Z,27.50
2018-06-24T10:11:44.210Z,27.70
2018-06-24T10:14:12.407Z,26.70
2018-06-24T10:16:40.736Z,26.30
2018-06-24T10:19:08.930Z,26.90
2018-06-24T10:21:37.201Z,27.10
2018-06-24T10:24:05.470Z,27.00
2018-06-24T10:26:33.689Z,27.00
2018-06-24T10:29:01.891Z,27.00
2018-06-24T10:31:30.070Z,26.80
2018-06-24T10:33:58.250Z,27.40
2018-06-24T10:36:26.411Z,27.40
2018-06-24T10:38:54.694Z,27.80
2018-06-24T10:41:22.951Z,27.80
2018-06-24T10:43:51.126Z,28.00
2018-06-24T10:46:19.319Z,28.00
2018-06-24T10:48:47.530Z,27.40
2018-06-24T10:51:15.742Z,26.70
2018-06-24T10:53:43.944Z,26.70
2018-06-24T10:56:12.476Z,26.40
2018-06-24T10:58:40.706Z,26.50
2018-06-24T11:01:08.996Z,26.20
2018-06-24T11:03:37.233Z,27.40
2018-06-24T11:06:05.759Z,27.30
2018-06-24T11:08:33.947Z,26.80
2018-06-24T11:11:02.197Z,27.90
2018-06-24T11:13:30.378Z,27.60
2018-06-24T11:15:58.578Z,27.80
2018-06-24T11:18:26.758Z,27.90
2018-06-24T11:20:54.986Z,27.50
2018-06-24T11:23:23.187Z,27.50
2018-06-24T11:25:51.690Z,27.30
2018-06-24T11:28:20.003Z,27.20
2018-06-24T11:30:48.196Z,27.30
2018-06-24T11:33:16.387Z,27.50
2018-06-24T11:35:44.569Z,28.20
2018-06-24T11:38:12.767Z,27.40
2018-06-24T11:40:40.972Z,27.00
2018-06-24T11:43:09.235Z,26.80
2018-06-24T11:45:37.438Z,25.70
2018-06-24T11:48:05.859Z,25.90
2018-06-24T11:50:34.152Z,26.50
2018-06-24T11:53:02.323Z,26.60
2018-06-24T11:55:30.509Z,26.60
2018-06-24T11:57:58.679Z,26.60
2018-06-24T12:00:26.886Z,26.70
2018-06-24T12:02:55.060Z,26.00
2018-06-24T12:05:23.248Z,26.30
2018-06-24T12:07:51.462Z,25.90
2018-06-24T12:10:19.647Z,25.30
2018-06-24T12:12:47.827Z,25.60
2018-06-24T12:15:16.058Z,25.60
2018-06-24T12:17:44.276Z,26.50
2018-06-24T12:20:12.499Z,26.00
2018-06-24T12:22:40.651Z,26.30
2018-06-24T12:25:08.859Z,26.50
2018-06-24T12:27:37.038Z,26.60
2018-06-24T12:30:05.674Z,26.10
2018-06-24T12:32:33.851Z,26.70
2018-06-24T12:35:02.094Z,26.80
2018-06-24T12:37:30.304Z,26.80
2018-06-24T12:39:58.448Z,26.70
2018-06-24T12:42:26.723Z,26.10
2018-06-24T12:44:54.890Z,26.00
2018-06-24T12:47:23.100Z,26.50
2018-06-24T12:49:51.297Z,26.50
2018-06-24T12:52:19.471Z,26.40
2018-06-24T12:54:47.649Z,26.40
2018-06-24T12:57:15.849Z,26.60
2018-06-24T12:59:44.307Z,25.90
2018-06-24T13:02:12.299Z,26.00
2018-06-24T13:04:40.495Z,26.20
2018-06-24T13:07:08.709Z,26.40
2018-06-24T13:09:36.950Z,26.80
2018-06-24T13:12:05.314Z,26.90
2018-06-24T13:14:33.499Z,27.10
2018-06-24T13:17:01.802Z,27.00
2018-06-24T13:19:30.016Z,27.10
2018-06-24T13:21:58.274Z,27.10
2018-06-24T13:26:54.518Z,26.90
2018-06-24T13:29:22.714Z,27.80
2018-06-24T13:31:50.930Z,28.10
2018-06-24T13:34:19.114Z,28.60
2018-06-24T13:36:47.374Z,28.60
2018-06-24T13:39:15.590Z,29.80
2018-06-24T13:44:11.755Z,28.60
2018-06-24T13:46:39.938Z,28.00
2018-06-24T13:49:08.179Z,28.40
2018-06-24T13:51:36.386Z,28.30
2018-06-24T13:54:04.631Z,28.40
2018-06-24T13:56:32.866Z,28.60
2018-06-24T13:59:01.090Z,28.30
2018-06-24T14:01:29.297Z,29.00
2018-06-24T14:03:57.601Z,28.60
2018-06-24T14:06:25.766Z,28.80
2018-06-24T14:08:54.352Z,28.60
2018-06-24T14:11:22.573Z,29.30
2018-06-24T14:13:50.789Z,29.40
2018-06-24T14:16:19.042Z,29.20
2018-06-24T14:18:47.318Z,29.80
2018-06-24T14:21:15.520Z,30.00
2018-06-24T14:23:43.703Z,30.00
2018-06-24T14:26:11.992Z,29.60
2018-06-24T14:28:40.294Z,29.50
2018-06-24T14:31:08.538Z,29.20
2018-06-24T14:33:36.742Z,28.90
2018-06-24T14:36:04.967Z,29.00
2018-06-24T14:38:33.170Z,29.10
2018-06-24T14:41:01.358Z,30.00
2018-06-24T14:43:29.569Z,30.30
2018-06-24T14:45:57.743Z,30.00
2018-06-24T14:48:25.966Z,29.60
2018-06-24T14:50:54.158Z,29.10
2018-06-24T14:53:22.381Z,29.40
2018-06-24T14:55:50.620Z,29.60
2018-06-24T14:58:18.857Z,29.10
2018-06-24T15:00:47.058Z,29.20
2018-06-24T15:03:16.188Z,28.50
2018-06-24T15:05:44.370Z,28.60
2018-06-24T15:08:12.962Z,28.70
2018-06-24T15:10:41.202Z,29.30
2018-06-24T15:13:09.432Z,29.70
2018-06-24T15:15:37.634Z,29.30
2018-06-24T15:18:05.847Z,28.70
2018-06-24T15:20:34.082Z,28.90
2018-06-24T15:23:02.285Z,28.90
2018-06-24T15:25:30.495Z,28.40
2018-06-24T15:27:58.762Z,28.00
2018-06-24T15:30:26.958Z,28.50
2018-06-24T15:32:55.172Z,28.70
2018-06-24T15:35:23.393Z,28.80
2018-06-24T15:37:51.623Z,28.20
2018-06-24T15:40:19.841Z,28.40
2018-06-24T15:42:48.026Z,28.60
2018-06-24T15:45:16.290Z,28.20
2018-06-24T15:47:44.486Z,28.10
2018-06-24T15:50:12.725Z,28.50
2018-06-24T15:52:41.015Z,29.20
2018-06-24T15:55:09.214Z,28.60
2018-06-24T15:57:37.496Z,28.00
2018-06-24T16:00:05.826Z,28.10
2018-06-24T16:02:34.062Z,27.80
2018-06-24T16:05:02.285Z,27.70
2018-06-24T16:07:30.517Z,28.00
2018-06-24T16:09:58.723Z,28.70
2018-06-24T16:12:26.974Z,29.50
2018-06-24T16:14:55.224Z,29.20
2018-06-24T16:17:23.419Z,29.40
2018-06-24T16:19:51.694Z,29.50
2018-06-24T16:22:19.875Z,29.50
2018-06-24T16:24:48.063Z,29.60
2018-06-24T16:27:16.338Z,29.50
2018-06-24T16:29:44.563Z,29.80
2018-06-24T16:32:12.772Z,29.60
2018-06-24T16:34:40.958Z,29.60
2018-06-24T16:37:09.154Z,29.80
2018-06-24T16:39:37.344Z,29.60
2018-06-24T16:42:05.598Z,29.60
2018-06-24T16:44:33.818Z,30.10
2018-06-24T16:47:02.076Z,30.20
2018-06-24T16:49:30.294Z,30.40
2018-06-24T16:51:58.499Z,30.40
2018-06-24T16:54:27.137Z,30.50
2018-06-24T16:56:55.375Z,30.50
2018-06-24T16:59:23.596Z,32.40
2018-06-24T17:01:51.863Z,32.40
2018-06-24T17:04:20.270Z,32.20
2018-06-24T17:06:48.510Z,32.70
2018-06-24T17:09:16.830Z,33.00
2018-06-24T17:11:45.031Z,32.30
2018-06-24T17:14:13.284Z,32.30
2018-06-24T17:16:41.482Z,32.40
2018-06-24T17:19:09.704Z,31.80
2018-06-24T17:21:37.978Z,31.80
2018-06-24T17:24:06.286Z,31.90
2018-06-24T17:26:34.582Z,31.80
2018-06-24T17:29:02.781Z,31.90
2018-06-24T17:31:30.969Z,31.90
2018-06-24T17:33:59.174Z,31.70
2018-06-24T17:36:27.420Z,31.90
2018-06-24T17:38:55.637Z,31.90
2018-06-24T17:41:24.057Z,32.20
2018-06-24T17:43:52.261Z,32.10
2018-06-24T17:46:20.636Z,31.80
2018-06-24T17:48:49.014Z,31.80
2018-06-24T17:51:17.404Z,32.00
2018-06-24T17:53:45.687Z,32.30
2018-06-24T17:56:13.926Z,32.30
2018-06-24T17:58:42.131Z,32.40
2018-06-24T18:01:10.405Z,32.30
2018-06-24T18:03:38.864Z,32.50
2018-06-24T18:06:07.138Z,32.50
2018-06-24T18:08:35.357Z,32.70
2018-06-24T18:11:03.620Z,32.60
2018-06-24T18:13:31.899Z,32.70
2018-06-24T18:16:00.120Z,32.70
2018-06-24T18:18:28.308Z,32.50
2018-06-24T18:20:56.503Z,32.70
2018-06-24T18:23:24.781Z,32.70
2018-06-24T18:25:53.013Z,31.70
2018-06-24T18:28:21.231Z,31.60
2018-06-24T18:30:49.438Z,31.70
2018-06-24T18:33:17.755Z,31.60
2018-06-24T18:35:46.043Z,32.50
2018-06-24T18:38:14.271Z,31.60
2018-06-24T18:40:42.526Z,31.90
2018-06-24T18:43:10.783Z,32.10
2018-06-24T18:45:38.930Z,32.10
2018-06-24T18:48:07.131Z,32.00
2018-06-24T18:50:35.503Z,32.20
2018-06-24T18:53:04.331Z,32.30
2018-06-24T18:55:32.588Z,32.10
2018-06-24T18:58:00.866Z,32.10
2018-06-24T19:00:29.122Z,32.30
2018-06-24T19:02:57.418Z,32.40
2018-06-24T19:05:25.618Z,32.50
2018-06-24T19:07:53.815Z,32.40
2018-06-24T19:10:22.227Z,32.50
2018-06-24T19:12:50.612Z,32.80
2018-06-24T19:15:19.022Z,32.80
2018-06-24T19:17:47.246Z,32.80
2018-06-24T19:20:15.478Z,32.90
2018-06-24T19:22:43.738Z,33.20
2018-06-24T19:25:12.013Z,33.00
2018-06-24T19:27:40.399Z,32.90
2018-06-24T19:30:08.696Z,33.00
2018-06-24T19:32:36.924Z,33.10
2018-06-24T19:35:05.579Z,33.10
2018-06-24T19:37:33.829Z,33.40
2018-06-24T19:40:02.155Z,33.50
2018-06-24T19:42:30.396Z,34.50
2018-06-24T19:44:58.662Z,33.70
2018-06-24T19:47:26.917Z,33.80
2018-06-24T19:49:56.385Z,33.70
2018-06-24T19:52:24.682Z,33.70
2018-06-24T19:54:52.911Z,34.00
2018-06-24T19:59:49.447Z,34.20
2018-06-24T20:04:45.635Z,34.50
2018-06-24T20:07:13.842Z,34.50
2018-06-24T20:09:42.039Z,35.00
2018-06-24T20:12:10.225Z,35.10
2018-06-24T20:14:38.435Z,35.40
2018-06-24T20:17:06.633Z,35.40
2018-06-24T20:19:34.805Z,35.60
2018-06-24T20:22:03.071Z,36.00
2018-06-24T20:24:31.282Z,35.80
2018-06-24T20:26:59.565Z,36.00
2018-06-24T20:29:27.797Z,37.00
2018-06-24T20:31:56.147Z,36.20
2018-06-24T20:34:24.489Z,36.50
2018-06-24T20:39:20.886Z,36.70
2018-06-24T20:41:49.224Z,36.90
2018-06-24T20:44:17.512Z,36.70
2018-06-24T20:46:45.875Z,36.90
2018-06-24T20:49:14.102Z,37.00
2018-06-24T20:51:42.379Z,36.80
2018-06-24T20:54:10.646Z,37.00
2018-06-24T20:56:38.940Z,37.00
2018-06-24T20:59:07.217Z,37.20
2018-06-24T21:01:35.483Z,37.40
2018-06-24T21:04:03.770Z,37.50
2018-06-24T21:06:32.128Z,37.50
2018-06-24T21:09:00.406Z,37.40
2018-06-24T21:11:28.659Z,37.30
2018-06-24T21:13:56.962Z,37.50
2018-06-24T21:16:25.167Z,37.40
2018-06-24T21:18:53.540Z,37.30
2018-06-24T21:21:21.819Z,37.60
2018-06-24T21:23:50.081Z,37.60
2018-06-24T21:26:18.351Z,37.40
2018-06-24T21:28:46.595Z,37.40
2018-06-24T21:31:14.818Z,37.20
2018-06-24T21:33:43.070Z,37.20
2018-06-24T21:36:11.341Z,37.40
2018-06-24T21:38:39.795Z,37.50
2018-06-24T21:41:08.046Z,37.60
2018-06-24T21:43:36.280Z,37.80
2018-06-24T21:46:04.670Z,38.40
2018-06-24T21:48:32.879Z,38.00
2018-06-24T21:51:01.158Z,38.50
2018-06-24T21:53:29.410Z,38.10
2018-06-24T21:55:57.643Z,38.40
2018-06-24T21:58:25.858Z,38.20
2018-06-24T22:00:54.381Z,38.20
2018-06-24T22:03:22.722Z,38.20
2018-06-24T22:05:50.922Z,38.10
2018-06-24T22:08:19.143Z,38.40
2018-06-24T22:10:47.608Z,38.70
2018-06-24T22:13:15.824Z,38.70
2018-06-24T22:15:44.032Z,39.10
2018-06-24T22:18:12.276Z,38.70
2018-06-24T22:20:40.480Z,38.70
2018-06-24T22:23:08.727Z,38.70
2018-06-24T22:25:37.028Z,38.60
2018-06-24T22:28:05.662Z,38.30
2018-06-24T22:30:33.991Z,38.30
2018-06-24T22:33:02.199Z,38.10
2018-06-24T22:35:30.406Z,38.10
2018-06-24T22:37:58.651Z,37.50
2018-06-24T22:40:26.890Z,37.80
2018-06-24T22:42:55.290Z,37.50
2018-06-24T22:45:23.536Z,37.50
2018-06-24T22:47:51.726Z,37.40
2018-06-24T22:50:19.946Z,37.90
2018-06-24T22:52:48.158Z,38.70
2018-06-24T22:55:16.379Z,38.30
2018-06-24T22:57:44.630Z,38.30
2018-06-24T23:00:15.775Z,38.30
2018-06-24T23:02:44.727Z,38.50
2018-06-24T23:05:13.642Z,38.60
2018-06-24T23:07:43.815Z,38.60
2018-06-24T23:10:12.487Z,38.90
2018-06-24T23:12:40.940Z,39.10
2018-06-24T23:15:10.163Z,39.30
2018-06-24T23:17:38.703Z,39.40
2018-06-24T23:20:07.874Z,39.70
2018-06-24T23:22:36.338Z,40.30
2018-06-24T23:25:05.079Z,41.30
2018-06-24T23:27:33.559Z,42.20
2018-06-24T23:30:01.771Z,43.10
2018-06-24T23:32:30.123Z,44.20
2018-06-24T23:34:58.323Z,45.00
2018-06-24T23:37:26.589Z,45.60
2018-06-24T23:39:54.966Z,46.20
2018-06-24T23:42:23.205Z,47.30
2018-06-24T23:44:51.562Z,47.40
2018-06-24T23:47:19.869Z,49.30
2018-06-24T23:49:48.130Z,50.30
2018-06-24T23:52:16.422Z,51.90
2018-06-24T23:54:44.679Z,53.90
2018-06-24T23:57:12.907Z,56.80
2018-06-24T23:59:41.188Z,56.30
